sensor_id;sensor_type;location;lat;lon;timestamp;P1;durP1;ratioP1;P2;durP2;ratioP2
5718;SDS011;2884;47.734;9.244;2022-12-04T00:01:07;22.03;;;13.47;;
5718;SDS011;2884;47.734;9.244;2022-12-04T00:03:43;25.40;;;13.07;;
5718;SDS011;2884;47.734;9.244;2022-12-04T00:06:09;22.20;;;13.03;;
5718;SDS011;2884;47.734;9.244;2022-12-04T00:08:39;23.90;;;13.30;;
5718;SDS011;2884;47.734;9.244;2022-12-04T00:11:06;21.92;;;12.55;;
5718;SDS011;2884;47.734;9.244;2022-12-04T00:13:33;24.45;;;13.23;;
5718;SDS011;2884;47.734;9.244;2022-12-04T00:15:59;20.00;;;11.70;;
5718;SDS011;2884;47.734;9.244;2022-12-04T00:18:25;22.90;;;13.20;;
5718;SDS011;2884;47.734;9.244;2022-12-04T00:20:51;20.55;;;12.07;;
5718;SDS011;2884;47.734;9.244;2022-12-04T00:23:17;20.77;;;12.33;;
5718;SDS011;2884;47.734;9.244;2022-12-04T00:25:43;22.33;;;12.17;;
5718;SDS011;2884;47.734;9.244;2022-12-04T00:28:13;18.20;;;11.73;;
5718;SDS011;2884;47.734;9.244;2022-12-04T00:30:40;20.63;;;12.40;;
5718;SDS011;2884;47.734;9.244;2022-12-04T00:33:06;21.00;;;11.38;;
5718;SDS011;2884;47.734;9.244;2022-12-04T00:35:32;20.03;;;11.77;;
5718;SDS011;2884;47.734;9.244;2022-12-04T00:37:57;20.17;;;12.20;;
5718;SDS011;2884;47.734;9.244;2022-12-04T00:40:24;22.23;;;12.57;;
5718;SDS011;2884;47.734;9.244;2022-12-04T00:42:50;21.90;;;12.70;;
5718;SDS011;2884;47.734;9.244;2022-12-04T00:45:15;22.27;;;11.20;;
5718;SDS011;2884;47.734;9.244;2022-12-04T00:47:41;22.53;;;12.33;;
5718;SDS011;2884;47.734;9.244;2022-12-04T00:50:25;23.73;;;12.48;;
5718;SDS011;2884;47.734;9.244;2022-12-04T00:52:50;20.80;;;11.00;;
5718;SDS011;2884;47.734;9.244;2022-12-04T00:55:16;21.27;;;11.73;;
5718;SDS011;2884;47.734;9.244;2022-12-04T00:57:41;21.57;;;10.87;;
5718;SDS011;2884;47.734;9.244;2022-12-04T01:00:07;19.37;;;11.57;;
5718;SDS011;2884;47.734;9.244;2022-12-04T01:02:33;22.30;;;12.47;;
5718;SDS011;2884;47.734;9.244;2022-12-04T01:04:59;17.70;;;10.70;;
5718;SDS011;2884;47.734;9.244;2022-12-04T01:07:25;21.02;;;10.88;;
5718;SDS011;2884;47.734;9.244;2022-12-04T01:09:51;20.63;;;12.07;;
5718;SDS011;2884;47.734;9.244;2022-12-04T01:12:16;22.30;;;12.07;;
5718;SDS011;2884;47.734;9.244;2022-12-04T01:14:42;20.27;;;10.93;;
5718;SDS011;2884;47.734;9.244;2022-12-04T01:17:07;19.87;;;11.03;;
5718;SDS011;2884;47.734;9.244;2022-12-04T01:19:33;18.27;;;11.17;;
5718;SDS011;2884;47.734;9.244;2022-12-04T01:21:58;20.63;;;12.50;;
5718;SDS011;2884;47.734;9.244;2022-12-04T01:24:24;15.50;;;10.70;;
5718;SDS011;2884;47.734;9.244;2022-12-04T01:26:52;20.00;;;10.73;;
5718;SDS011;2884;47.734;9.244;2022-12-04T01:29:18;17.02;;;10.95;;
5718;SDS011;2884;47.734;9.244;2022-12-04T01:31:43;16.20;;;9.80;;
5718;SDS011;2884;47.734;9.244;2022-12-04T01:34:09;18.27;;;10.90;;
5718;SDS011;2884;47.734;9.244;2022-12-04T01:36:35;19.73;;;10.90;;
5718;SDS011;2884;47.734;9.244;2022-12-04T01:39:00;16.13;;;10.70;;
5718;SDS011;2884;47.734;9.244;2022-12-04T01:41:27;15.70;;;9.90;;
5718;SDS011;2884;47.734;9.244;2022-12-04T01:46:43;19.88;;;11.20;;
5718;SDS011;2884;47.734;9.244;2022-12-04T01:49:55;15.65;;;10.57;;
5718;SDS011;2884;47.734;9.244;2022-12-04T01:52:08;19.10;;;11.40;;
5718;SDS011;2884;47.734;9.244;2022-12-04T01:54:39;14.77;;;9.75;;
5718;SDS011;2884;47.734;9.244;2022-12-04T01:59:52;15.65;;;9.98;;
5718;SDS011;2884;47.734;9.244;2022-12-04T02:02:33;18.08;;;10.60;;
5718;SDS011;2884;47.734;9.244;2022-12-04T02:05:03;14.43;;;8.85;;
5718;SDS011;2884;47.734;9.244;2022-12-04T02:07:29;13.23;;;8.88;;
5718;SDS011;2884;47.734;9.244;2022-12-04T02:09:55;15.87;;;9.57;;
5718;SDS011;2884;47.734;9.244;2022-12-04T02:15:01;22.52;;;10.10;;
5718;SDS011;2884;47.734;9.244;2022-12-04T02:17:47;19.00;;;10.52;;
5718;SDS011;2884;47.734;9.244;2022-12-04T02:28:19;15.05;;;8.82;;
5718;SDS011;2884;47.734;9.244;2022-12-04T02:30:50;15.07;;;9.57;;
5718;SDS011;2884;47.734;9.244;2022-12-04T02:33:21;17.90;;;8.80;;
5718;SDS011;2884;47.734;9.244;2022-12-04T02:35:51;18.98;;;10.10;;
5718;SDS011;2884;47.734;9.244;2022-12-04T02:41:08;16.15;;;9.30;;
5718;SDS011;2884;47.734;9.244;2022-12-04T02:43:55;17.17;;;9.98;;
5718;SDS011;2884;47.734;9.244;2022-12-04T02:46:29;15.75;;;10.05;;
5718;SDS011;2884;47.734;9.244;2022-12-04T02:49:00;16.38;;;10.00;;
5718;SDS011;2884;47.734;9.244;2022-12-04T02:51:27;15.18;;;8.68;;
5718;SDS011;2884;47.734;9.244;2022-12-04T02:53:56;19.90;;;10.57;;
5718;SDS011;2884;47.734;9.244;2022-12-04T02:56:26;22.20;;;11.40;;
5718;SDS011;2884;47.734;9.244;2022-12-04T02:58:54;15.65;;;10.15;;
5718;SDS011;2884;47.734;9.244;2022-12-04T03:01:23;14.52;;;9.20;;
5718;SDS011;2884;47.734;9.244;2022-12-04T03:06:18;15.67;;;9.60;;
5718;SDS011;2884;47.734;9.244;2022-12-04T03:08:49;15.10;;;9.20;;
5718;SDS011;2884;47.734;9.244;2022-12-04T03:11:17;17.38;;;10.48;;
5718;SDS011;2884;47.734;9.244;2022-12-04T03:13:50;16.23;;;9.10;;
5718;SDS011;2884;47.734;9.244;2022-12-04T03:16:23;16.42;;;10.15;;
5718;SDS011;2884;47.734;9.244;2022-12-04T03:19:11;12.02;;;8.18;;
5718;SDS011;2884;47.734;9.244;2022-12-04T03:21:41;16.58;;;10.38;;
5718;SDS011;2884;47.734;9.244;2022-12-04T03:24:15;17.40;;;9.35;;
5718;SDS011;2884;47.734;9.244;2022-12-04T03:26:45;15.60;;;9.32;;
5718;SDS011;2884;47.734;9.244;2022-12-04T03:29:18;14.35;;;8.80;;
5718;SDS011;2884;47.734;9.244;2022-12-04T03:34:30;15.23;;;9.73;;
5718;SDS011;2884;47.734;9.244;2022-12-04T03:37:00;12.70;;;8.05;;
5718;SDS011;2884;47.734;9.244;2022-12-04T03:39:40;17.25;;;10.60;;
5718;SDS011;2884;47.734;9.244;2022-12-04T03:45:22;14.52;;;8.93;;
5718;SDS011;2884;47.734;9.244;2022-12-04T03:48:01;16.98;;;9.63;;
5718;SDS011;2884;47.734;9.244;2022-12-04T03:56:38;13.02;;;8.20;;
5718;SDS011;2884;47.734;9.244;2022-12-04T03:59:11;13.75;;;8.40;;
5718;SDS011;2884;47.734;9.244;2022-12-04T04:01:41;16.25;;;9.00;;
5718;SDS011;2884;47.734;9.244;2022-12-04T04:04:10;15.05;;;9.30;;
5718;SDS011;2884;47.734;9.244;2022-12-04T04:06:41;15.18;;;9.10;;
5718;SDS011;2884;47.734;9.244;2022-12-04T04:09:15;14.88;;;8.40;;
5718;SDS011;2884;47.734;9.244;2022-12-04T04:12:05;15.30;;;9.68;;
5718;SDS011;2884;47.734;9.244;2022-12-04T04:14:40;12.60;;;8.80;;
5718;SDS011;2884;47.734;9.244;2022-12-04T04:17:29;16.52;;;9.25;;
5718;SDS011;2884;47.734;9.244;2022-12-04T04:20:15;14.60;;;9.20;;
5718;SDS011;2884;47.734;9.244;2022-12-04T04:23:02;16.05;;;9.52;;
5718;SDS011;2884;47.734;9.244;2022-12-04T04:25:48;16.05;;;9.30;;
5718;SDS011;2884;47.734;9.244;2022-12-04T04:31:09;18.55;;;9.40;;
5718;SDS011;2884;47.734;9.244;2022-12-04T04:33:49;13.60;;;9.63;;
5718;SDS011;2884;47.734;9.244;2022-12-04T04:36:22;14.45;;;9.40;;
5718;SDS011;2884;47.734;9.244;2022-12-04T04:38:55;17.80;;;10.43;;
5718;SDS011;2884;47.734;9.244;2022-12-04T04:44:19;16.38;;;9.70;;
5718;SDS011;2884;47.734;9.244;2022-12-04T04:46:51;14.02;;;8.48;;
5718;SDS011;2884;47.734;9.244;2022-12-04T04:49:21;14.95;;;8.85;;
5718;SDS011;2884;47.734;9.244;2022-12-04T04:51:47;16.45;;;9.73;;
5718;SDS011;2884;47.734;9.244;2022-12-04T04:54:13;18.00;;;10.77;;
5718;SDS011;2884;47.734;9.244;2022-12-04T04:56:44;17.77;;;10.02;;
5718;SDS011;2884;47.734;9.244;2022-12-04T04:59:11;13.60;;;9.18;;
5718;SDS011;2884;47.734;9.244;2022-12-04T05:01:37;14.10;;;9.00;;
5718;SDS011;2884;47.734;9.244;2022-12-04T05:04:04;15.27;;;9.32;;
5718;SDS011;2884;47.734;9.244;2022-12-04T05:06:31;16.17;;;9.85;;
5718;SDS011;2884;47.734;9.244;2022-12-04T05:08:56;14.83;;;9.50;;
5718;SDS011;2884;47.734;9.244;2022-12-04T05:11:22;17.00;;;9.70;;
5718;SDS011;2884;47.734;9.244;2022-12-04T05:13:47;14.10;;;8.73;;
5718;SDS011;2884;47.734;9.244;2022-12-04T05:16:14;14.17;;;9.37;;
5718;SDS011;2884;47.734;9.244;2022-12-04T05:18:40;15.73;;;9.52;;
5718;SDS011;2884;47.734;9.244;2022-12-04T05:21:26;13.98;;;9.40;;
5718;SDS011;2884;47.734;9.244;2022-12-04T05:23:51;17.03;;;9.17;;
5718;SDS011;2884;47.734;9.244;2022-12-04T05:26:17;23.20;;;11.37;;
5718;SDS011;2884;47.734;9.244;2022-12-04T05:28:43;18.20;;;10.27;;
5718;SDS011;2884;47.734;9.244;2022-12-04T05:31:08;19.03;;;9.43;;
5718;SDS011;2884;47.734;9.244;2022-12-04T05:33:34;16.23;;;9.43;;
5718;SDS011;2884;47.734;9.244;2022-12-04T05:36:00;13.87;;;9.70;;
5718;SDS011;2884;47.734;9.244;2022-12-04T05:38:27;15.45;;;9.32;;
5718;SDS011;2884;47.734;9.244;2022-12-04T05:40:53;16.23;;;9.83;;
5718;SDS011;2884;47.734;9.244;2022-12-04T05:43:19;15.50;;;9.27;;
5718;SDS011;2884;47.734;9.244;2022-12-04T05:45:44;14.00;;;9.20;;
5718;SDS011;2884;47.734;9.244;2022-12-04T05:48:09;17.83;;;9.40;;
5718;SDS011;2884;47.734;9.244;2022-12-04T05:50:37;19.53;;;9.70;;
5718;SDS011;2884;47.734;9.244;2022-12-04T05:53:03;19.27;;;10.43;;
5718;SDS011;2884;47.734;9.244;2022-12-04T05:55:28;16.10;;;9.20;;
5718;SDS011;2884;47.734;9.244;2022-12-04T05:57:54;17.40;;;9.70;;
5718;SDS011;2884;47.734;9.244;2022-12-04T06:00:19;17.00;;;8.70;;
5718;SDS011;2884;47.734;9.244;2022-12-04T06:02:45;15.40;;;9.57;;
5718;SDS011;2884;47.734;9.244;2022-12-04T06:05:11;16.70;;;9.87;;
5718;SDS011;2884;47.734;9.244;2022-12-04T06:07:36;18.20;;;9.70;;
5718;SDS011;2884;47.734;9.244;2022-12-04T06:10:02;15.73;;;9.80;;
5718;SDS011;2884;47.734;9.244;2022-12-04T06:12:36;16.63;;;8.98;;
5718;SDS011;2884;47.734;9.244;2022-12-04T06:15:02;18.27;;;10.40;;
5718;SDS011;2884;47.734;9.244;2022-12-04T06:17:28;16.25;;;10.70;;
5718;SDS011;2884;47.734;9.244;2022-12-04T06:19:54;12.47;;;9.10;;
5718;SDS011;2884;47.734;9.244;2022-12-04T06:22:20;15.77;;;9.37;;
5718;SDS011;2884;47.734;9.244;2022-12-04T06:24:46;18.20;;;9.63;;
5718;SDS011;2884;47.734;9.244;2022-12-04T06:27:11;17.23;;;9.67;;
5718;SDS011;2884;47.734;9.244;2022-12-04T06:29:37;15.50;;;9.70;;
5718;SDS011;2884;47.734;9.244;2022-12-04T06:32:02;18.40;;;10.00;;
5718;SDS011;2884;47.734;9.244;2022-12-04T06:34:28;15.88;;;8.93;;
5718;SDS011;2884;47.734;9.244;2022-12-04T06:36:54;18.70;;;11.17;;
5718;SDS011;2884;47.734;9.244;2022-12-04T06:39:19;14.70;;;9.57;;
5718;SDS011;2884;47.734;9.244;2022-12-04T06:41:45;13.77;;;8.37;;
5718;SDS011;2884;47.734;9.244;2022-12-04T06:44:14;14.25;;;9.15;;
5718;SDS011;2884;47.734;9.244;2022-12-04T06:46:40;16.15;;;9.13;;
5718;SDS011;2884;47.734;9.244;2022-12-04T06:49:08;15.43;;;9.40;;
5718;SDS011;2884;47.734;9.244;2022-12-04T06:51:35;15.57;;;9.10;;
5718;SDS011;2884;47.734;9.244;2022-12-04T06:54:01;12.65;;;9.32;;
5718;SDS011;2884;47.734;9.244;2022-12-04T06:56:28;15.57;;;8.95;;
5718;SDS011;2884;47.734;9.244;2022-12-04T06:58:56;16.55;;;10.35;;
5718;SDS011;2884;47.734;9.244;2022-12-04T07:01:24;26.77;;;10.35;;
5718;SDS011;2884;47.734;9.244;2022-12-04T07:03:51;15.63;;;10.05;;
5718;SDS011;2884;47.734;9.244;2022-12-04T07:06:21;15.65;;;9.43;;
5718;SDS011;2884;47.734;9.244;2022-12-04T07:08:56;14.57;;;9.70;;
5718;SDS011;2884;47.734;9.244;2022-12-04T07:11:23;17.27;;;10.38;;
5718;SDS011;2884;47.734;9.244;2022-12-04T07:13:49;18.83;;;10.17;;
5718;SDS011;2884;47.734;9.244;2022-12-04T07:16:16;14.25;;;8.60;;
5718;SDS011;2884;47.734;9.244;2022-12-04T07:18:43;13.55;;;9.20;;
5718;SDS011;2884;47.734;9.244;2022-12-04T07:21:10;15.27;;;8.77;;
5718;SDS011;2884;47.734;9.244;2022-12-04T07:23:39;17.35;;;10.00;;
5718;SDS011;2884;47.734;9.244;2022-12-04T07:26:05;15.47;;;9.10;;
5718;SDS011;2884;47.734;9.244;2022-12-04T07:28:35;14.48;;;9.13;;
5718;SDS011;2884;47.734;9.244;2022-12-04T07:31:23;15.95;;;9.20;;
5718;SDS011;2884;47.734;9.244;2022-12-04T07:33:48;19.58;;;9.90;;
5718;SDS011;2884;47.734;9.244;2022-12-04T07:36:15;17.20;;;9.65;;
5718;SDS011;2884;47.734;9.244;2022-12-04T07:38:43;17.02;;;9.90;;
5718;SDS011;2884;47.734;9.244;2022-12-04T07:41:09;13.90;;;8.67;;
5718;SDS011;2884;47.734;9.244;2022-12-04T07:43:39;13.52;;;8.73;;
5718;SDS011;2884;47.734;9.244;2022-12-04T07:46:06;16.80;;;9.60;;
5718;SDS011;2884;47.734;9.244;2022-12-04T07:48:34;13.48;;;8.90;;
5718;SDS011;2884;47.734;9.244;2022-12-04T07:51:09;15.93;;;9.23;;
5718;SDS011;2884;47.734;9.244;2022-12-04T07:53:36;12.05;;;8.05;;
5718;SDS011;2884;47.734;9.244;2022-12-04T07:56:02;16.13;;;9.03;;
5718;SDS011;2884;47.734;9.244;2022-12-04T07:58:29;14.10;;;8.85;;
5718;SDS011;2884;47.734;9.244;2022-12-04T08:00:55;12.17;;;8.07;;
5718;SDS011;2884;47.734;9.244;2022-12-04T08:03:32;15.60;;;9.50;;
5718;SDS011;2884;47.734;9.244;2022-12-04T08:05:59;15.47;;;9.03;;
5718;SDS011;2884;47.734;9.244;2022-12-04T08:08:25;14.50;;;8.90;;
5718;SDS011;2884;47.734;9.244;2022-12-04T08:11:22;13.85;;;9.13;;
5718;SDS011;2884;47.734;9.244;2022-12-04T08:14:10;12.75;;;8.23;;
5718;SDS011;2884;47.734;9.244;2022-12-04T08:16:36;12.88;;;8.18;;
5718;SDS011;2884;47.734;9.244;2022-12-04T08:19:01;12.37;;;8.13;;
5718;SDS011;2884;47.734;9.244;2022-12-04T08:21:28;10.47;;;7.27;;
5718;SDS011;2884;47.734;9.244;2022-12-04T08:23:55;14.38;;;9.10;;
5718;SDS011;2884;47.734;9.244;2022-12-04T08:26:22;14.88;;;8.50;;
5718;SDS011;2884;47.734;9.244;2022-12-04T08:28:51;14.10;;;8.52;;
5718;SDS011;2884;47.734;9.244;2022-12-04T08:31:18;15.45;;;8.57;;
5718;SDS011;2884;47.734;9.244;2022-12-04T08:33:46;13.05;;;7.60;;
5718;SDS011;2884;47.734;9.244;2022-12-04T08:36:13;13.55;;;8.70;;
5718;SDS011;2884;47.734;9.244;2022-12-04T08:38:40;13.50;;;8.45;;
5718;SDS011;2884;47.734;9.244;2022-12-04T08:41:07;14.50;;;8.73;;
5718;SDS011;2884;47.734;9.244;2022-12-04T08:43:33;12.45;;;8.65;;
5718;SDS011;2884;47.734;9.244;2022-12-04T08:46:00;14.17;;;8.80;;
5718;SDS011;2884;47.734;9.244;2022-12-04T08:48:27;11.65;;;8.07;;
5718;SDS011;2884;47.734;9.244;2022-12-04T08:50:53;15.50;;;8.80;;
5718;SDS011;2884;47.734;9.244;2022-12-04T08:53:20;12.82;;;7.78;;
5718;SDS011;2884;47.734;9.244;2022-12-04T08:55:45;14.43;;;8.57;;
5718;SDS011;2884;47.734;9.244;2022-12-04T08:58:11;10.40;;;7.33;;
5718;SDS011;2884;47.734;9.244;2022-12-04T09:00:37;12.73;;;7.88;;
5718;SDS011;2884;47.734;9.244;2022-12-04T09:03:03;15.00;;;8.27;;
5718;SDS011;2884;47.734;9.244;2022-12-04T09:05:29;14.43;;;8.80;;
5718;SDS011;2884;47.734;9.244;2022-12-04T09:07:55;13.52;;;8.90;;
5718;SDS011;2884;47.734;9.244;2022-12-04T09:10:20;12.80;;;7.93;;
5718;SDS011;2884;47.734;9.244;2022-12-04T09:12:46;13.90;;;8.43;;
5718;SDS011;2884;47.734;9.244;2022-12-04T09:15:11;14.73;;;8.77;;
5718;SDS011;2884;47.734;9.244;2022-12-04T09:17:37;15.80;;;9.10;;
5718;SDS011;2884;47.734;9.244;2022-12-04T09:20:03;12.55;;;8.25;;
5718;SDS011;2884;47.734;9.244;2022-12-04T09:22:32;13.48;;;9.02;;
5718;SDS011;2884;47.734;9.244;2022-12-04T09:24:58;14.23;;;8.88;;
5718;SDS011;2884;47.734;9.244;2022-12-04T09:27:23;12.57;;;7.70;;
5718;SDS011;2884;47.734;9.244;2022-12-04T09:29:49;12.70;;;8.30;;
5718;SDS011;2884;47.734;9.244;2022-12-04T09:32:14;11.50;;;7.60;;
5718;SDS011;2884;47.734;9.244;2022-12-04T09:34:40;12.53;;;7.90;;
5718;SDS011;2884;47.734;9.244;2022-12-04T09:37:05;10.10;;;6.83;;
5718;SDS011;2884;47.734;9.244;2022-12-04T09:39:31;11.77;;;7.80;;
5718;SDS011;2884;47.734;9.244;2022-12-04T09:42:18;11.43;;;8.00;;
5718;SDS011;2884;47.734;9.244;2022-12-04T09:45:02;12.43;;;7.75;;
5718;SDS011;2884;47.734;9.244;2022-12-04T09:47:32;12.93;;;8.10;;
5718;SDS011;2884;47.734;9.244;2022-12-04T09:52:46;13.60;;;8.55;;
5718;SDS011;2884;47.734;9.244;2022-12-04T09:55:32;12.90;;;9.15;;
5718;SDS011;2884;47.734;9.244;2022-12-04T09:58:02;15.32;;;10.38;;
5718;SDS011;2884;47.734;9.244;2022-12-04T10:00:30;15.35;;;10.65;;
5718;SDS011;2884;47.734;9.244;2022-12-04T10:02:59;14.23;;;8.70;;
5718;SDS011;2884;47.734;9.244;2022-12-04T10:10:43;14.02;;;9.07;;
5718;SDS011;2884;47.734;9.244;2022-12-04T10:18:52;12.73;;;8.90;;
5718;SDS011;2884;47.734;9.244;2022-12-04T10:26:55;13.32;;;8.43;;
5718;SDS011;2884;47.734;9.244;2022-12-04T10:29:25;15.00;;;9.25;;
5718;SDS011;2884;47.734;9.244;2022-12-04T10:31:52;16.35;;;10.07;;
5718;SDS011;2884;47.734;9.244;2022-12-04T10:34:21;12.13;;;8.15;;
5718;SDS011;2884;47.734;9.244;2022-12-04T10:36:50;12.40;;;8.10;;
5718;SDS011;2884;47.734;9.244;2022-12-04T10:39:20;12.65;;;8.80;;
5718;SDS011;2884;47.734;9.244;2022-12-04T10:44:21;13.32;;;8.20;;
5718;SDS011;2884;47.734;9.244;2022-12-04T10:46:47;12.73;;;8.23;;
5718;SDS011;2884;47.734;9.244;2022-12-04T10:49:20;11.35;;;8.13;;
5718;SDS011;2884;47.734;9.244;2022-12-04T10:51:48;13.38;;;8.52;;
5718;SDS011;2884;47.734;9.244;2022-12-04T10:54:22;12.18;;;7.72;;
5718;SDS011;2884;47.734;9.244;2022-12-04T10:56:55;12.63;;;7.55;;
5718;SDS011;2884;47.734;9.244;2022-12-04T10:59:23;16.83;;;8.93;;
5718;SDS011;2884;47.734;9.244;2022-12-04T11:01:49;10.93;;;7.43;;
5718;SDS011;2884;47.734;9.244;2022-12-04T11:04:24;15.00;;;8.18;;
5718;SDS011;2884;47.734;9.244;2022-12-04T11:06:58;13.13;;;8.23;;
5718;SDS011;2884;47.734;9.244;2022-12-04T11:09:26;13.40;;;8.07;;
5718;SDS011;2884;47.734;9.244;2022-12-04T11:12:03;14.27;;;9.32;;
5718;SDS011;2884;47.734;9.244;2022-12-04T11:14:33;14.75;;;8.48;;
5718;SDS011;2884;47.734;9.244;2022-12-04T11:17:00;12.03;;;7.30;;
5718;SDS011;2884;47.734;9.244;2022-12-04T11:19:28;15.82;;;8.73;;
5718;SDS011;2884;47.734;9.244;2022-12-04T11:21:56;13.68;;;9.02;;
5718;SDS011;2884;47.734;9.244;2022-12-04T11:24:26;13.43;;;8.60;;
5718;SDS011;2884;47.734;9.244;2022-12-04T11:26:54;12.95;;;8.35;;
5718;SDS011;2884;47.734;9.244;2022-12-04T11:29:21;11.88;;;8.27;;
5718;SDS011;2884;47.734;9.244;2022-12-04T11:31:53;13.13;;;8.82;;
5718;SDS011;2884;47.734;9.244;2022-12-04T11:34:20;13.67;;;8.53;;
5718;SDS011;2884;47.734;9.244;2022-12-04T11:36:52;14.98;;;9.23;;
5718;SDS011;2884;47.734;9.244;2022-12-04T11:39:21;13.32;;;8.63;;
5718;SDS011;2884;47.734;9.244;2022-12-04T11:44:37;13.35;;;8.50;;
5718;SDS011;2884;47.734;9.244;2022-12-04T11:47:04;11.23;;;7.65;;
5718;SDS011;2884;47.734;9.244;2022-12-04T11:49:38;10.35;;;7.45;;
5718;SDS011;2884;47.734;9.244;2022-12-04T11:57:30;14.10;;;8.77;;
5718;SDS011;2884;47.734;9.244;2022-12-04T12:00:12;13.07;;;8.60;;
5718;SDS011;2884;47.734;9.244;2022-12-04T12:11:01;11.90;;;7.97;;
5718;SDS011;2884;47.734;9.244;2022-12-04T12:30:07;11.93;;;8.15;;
5718;SDS011;2884;47.734;9.244;2022-12-04T12:38:23;11.85;;;8.00;;
5718;SDS011;2884;47.734;9.244;2022-12-04T12:40:52;15.02;;;9.35;;
5718;SDS011;2884;47.734;9.244;2022-12-04T12:43:23;17.63;;;9.25;;
5718;SDS011;2884;47.734;9.244;2022-12-04T12:45:57;13.25;;;8.95;;
5718;SDS011;2884;47.734;9.244;2022-12-04T12:53:54;14.70;;;9.00;;
5718;SDS011;2884;47.734;9.244;2022-12-04T12:56:30;12.88;;;9.35;;
5718;SDS011;2884;47.734;9.244;2022-12-04T12:59:00;14.23;;;8.82;;
5718;SDS011;2884;47.734;9.244;2022-12-04T13:06:38;13.03;;;8.10;;
5718;SDS011;2884;47.734;9.244;2022-12-04T13:11:50;10.52;;;8.02;;
5718;SDS011;2884;47.734;9.244;2022-12-04T13:14:18;12.20;;;7.68;;
5718;SDS011;2884;47.734;9.244;2022-12-04T13:17:27;13.40;;;8.00;;
5718;SDS011;2884;47.734;9.244;2022-12-04T13:19:37;13.65;;;8.82;;
5718;SDS011;2884;47.734;9.244;2022-12-04T13:27:48;13.30;;;8.82;;
5718;SDS011;2884;47.734;9.244;2022-12-04T13:30:23;11.38;;;7.80;;
5718;SDS011;2884;47.734;9.244;2022-12-04T13:35:57;12.00;;;7.57;;
5718;SDS011;2884;47.734;9.244;2022-12-04T13:41:35;11.48;;;7.50;;
5718;SDS011;2884;47.734;9.244;2022-12-04T13:44:10;12.25;;;7.82;;
5718;SDS011;2884;47.734;9.244;2022-12-04T13:46:38;11.60;;;7.57;;
5718;SDS011;2884;47.734;9.244;2022-12-04T13:49:24;12.55;;;8.40;;
5718;SDS011;2884;47.734;9.244;2022-12-04T13:51:51;13.98;;;8.18;;
5718;SDS011;2884;47.734;9.244;2022-12-04T13:54:21;10.75;;;8.15;;
5718;SDS011;2884;47.734;9.244;2022-12-04T13:56:53;11.48;;;7.82;;
5718;SDS011;2884;47.734;9.244;2022-12-04T13:59:33;15.35;;;8.07;;
5718;SDS011;2884;47.734;9.244;2022-12-04T14:02:17;10.20;;;7.50;;
5718;SDS011;2884;47.734;9.244;2022-12-04T14:07:26;15.27;;;9.02;;
5718;SDS011;2884;47.734;9.244;2022-12-04T14:09:55;11.93;;;7.82;;
5718;SDS011;2884;47.734;9.244;2022-12-04T14:12:29;16.65;;;10.15;;
5718;SDS011;2884;47.734;9.244;2022-12-04T14:15:04;14.68;;;8.80;;
5718;SDS011;2884;47.734;9.244;2022-12-04T14:17:32;15.50;;;8.50;;
5718;SDS011;2884;47.734;9.244;2022-12-04T14:20:00;13.27;;;9.88;;
5718;SDS011;2884;47.734;9.244;2022-12-04T14:30:10;15.40;;;9.90;;
5718;SDS011;2884;47.734;9.244;2022-12-04T14:32:44;15.98;;;9.45;;
5718;SDS011;2884;47.734;9.244;2022-12-04T14:35:16;14.90;;;10.27;;
5718;SDS011;2884;47.734;9.244;2022-12-04T14:37:47;12.98;;;9.18;;
5718;SDS011;2884;47.734;9.244;2022-12-04T14:40:18;15.65;;;9.88;;
5718;SDS011;2884;47.734;9.244;2022-12-04T14:42:47;10.63;;;8.13;;
5718;SDS011;2884;47.734;9.244;2022-12-04T14:50:42;14.23;;;9.70;;
5718;SDS011;2884;47.734;9.244;2022-12-04T14:53:45;15.18;;;10.60;;
5718;SDS011;2884;47.734;9.244;2022-12-04T14:56:23;16.63;;;10.13;;
5718;SDS011;2884;47.734;9.244;2022-12-04T14:59:17;15.48;;;9.23;;
5718;SDS011;2884;47.734;9.244;2022-12-04T15:01:45;14.25;;;8.80;;
5718;SDS011;2884;47.734;9.244;2022-12-04T15:04:22;13.80;;;9.27;;
5718;SDS011;2884;47.734;9.244;2022-12-04T15:06:50;15.73;;;9.90;;
5718;SDS011;2884;47.734;9.244;2022-12-04T15:09:18;15.80;;;10.48;;
5718;SDS011;2884;47.734;9.244;2022-12-04T15:12:21;13.90;;;9.15;;
5718;SDS011;2884;47.734;9.244;2022-12-04T15:14:58;16.77;;;10.32;;
5718;SDS011;2884;47.734;9.244;2022-12-04T15:17:26;15.48;;;10.40;;
5718;SDS011;2884;47.734;9.244;2022-12-04T15:19:52;16.67;;;11.20;;
5718;SDS011;2884;47.734;9.244;2022-12-04T15:22:25;15.33;;;10.33;;
5718;SDS011;2884;47.734;9.244;2022-12-04T15:24:51;17.98;;;10.60;;
5718;SDS011;2884;47.734;9.244;2022-12-04T15:27:19;14.43;;;10.30;;
5718;SDS011;2884;47.734;9.244;2022-12-04T15:29:45;16.33;;;10.35;;
5718;SDS011;2884;47.734;9.244;2022-12-04T15:32:16;20.20;;;10.55;;
5718;SDS011;2884;47.734;9.244;2022-12-04T15:34:47;15.32;;;8.80;;
5718;SDS011;2884;47.734;9.244;2022-12-04T15:37:17;15.40;;;9.75;;
5718;SDS011;2884;47.734;9.244;2022-12-04T15:39:45;15.57;;;10.32;;
5718;SDS011;2884;47.734;9.244;2022-12-04T15:44:58;13.95;;;9.27;;
5718;SDS011;2884;47.734;9.244;2022-12-04T15:47:32;14.02;;;9.43;;
5718;SDS011;2884;47.734;9.244;2022-12-04T15:50:06;14.15;;;9.27;;
5718;SDS011;2884;47.734;9.244;2022-12-04T15:52:32;16.65;;;11.32;;
5718;SDS011;2884;47.734;9.244;2022-12-04T15:54:59;14.48;;;9.77;;
5718;SDS011;2884;47.734;9.244;2022-12-04T15:59:58;14.82;;;10.40;;
5718;SDS011;2884;47.734;9.244;2022-12-04T16:04:53;17.38;;;10.85;;
5718;SDS011;2884;47.734;9.244;2022-12-04T16:07:27;14.33;;;9.40;;
5718;SDS011;2884;47.734;9.244;2022-12-04T16:10:00;15.30;;;10.52;;
5718;SDS011;2884;47.734;9.244;2022-12-04T16:12:27;17.52;;;10.25;;
5718;SDS011;2884;47.734;9.244;2022-12-04T16:14:55;14.95;;;10.45;;
5718;SDS011;2884;47.734;9.244;2022-12-04T16:17:30;17.95;;;9.88;;
5718;SDS011;2884;47.734;9.244;2022-12-04T16:19:57;15.85;;;9.35;;
5718;SDS011;2884;47.734;9.244;2022-12-04T16:22:24;15.10;;;10.80;;
5718;SDS011;2884;47.734;9.244;2022-12-04T16:24:50;18.83;;;11.52;;
5718;SDS011;2884;47.734;9.244;2022-12-04T16:27:17;20.00;;;12.60;;
5718;SDS011;2884;47.734;9.244;2022-12-04T16:29:44;16.52;;;10.23;;
5718;SDS011;2884;47.734;9.244;2022-12-04T16:32:14;16.23;;;10.88;;
5718;SDS011;2884;47.734;9.244;2022-12-04T16:34:41;15.80;;;10.70;;
5718;SDS011;2884;47.734;9.244;2022-12-04T16:37:14;15.53;;;9.57;;
5718;SDS011;2884;47.734;9.244;2022-12-04T16:39:41;14.68;;;9.85;;
5718;SDS011;2884;47.734;9.244;2022-12-04T16:42:14;17.37;;;11.67;;
5718;SDS011;2884;47.734;9.244;2022-12-04T16:44:51;16.70;;;10.70;;
5718;SDS011;2884;47.734;9.244;2022-12-04T16:47:17;16.48;;;10.70;;
5718;SDS011;2884;47.734;9.244;2022-12-04T16:49:43;13.80;;;9.30;;
5718;SDS011;2884;47.734;9.244;2022-12-04T16:52:10;16.02;;;10.35;;
5718;SDS011;2884;47.734;9.244;2022-12-04T16:54:36;16.40;;;9.75;;
5718;SDS011;2884;47.734;9.244;2022-12-04T16:57:01;14.63;;;9.60;;
5718;SDS011;2884;47.734;9.244;2022-12-04T16:59:27;17.60;;;10.43;;
5718;SDS011;2884;47.734;9.244;2022-12-04T17:01:53;19.13;;;11.03;;
5718;SDS011;2884;47.734;9.244;2022-12-04T17:04:18;17.70;;;10.60;;
5718;SDS011;2884;47.734;9.244;2022-12-04T17:06:44;18.27;;;11.50;;
5718;SDS011;2884;47.734;9.244;2022-12-04T17:09:10;18.97;;;11.70;;
5718;SDS011;2884;47.734;9.244;2022-12-04T17:11:36;19.27;;;11.77;;
5718;SDS011;2884;47.734;9.244;2022-12-04T17:14:02;17.00;;;10.80;;
5718;SDS011;2884;47.734;9.244;2022-12-04T17:16:38;17.50;;;11.65;;
5718;SDS011;2884;47.734;9.244;2022-12-04T17:19:06;19.92;;;11.70;;
5718;SDS011;2884;47.734;9.244;2022-12-04T17:21:32;21.90;;;12.30;;
5718;SDS011;2884;47.734;9.244;2022-12-04T17:23:58;18.15;;;11.80;;
5718;SDS011;2884;47.734;9.244;2022-12-04T17:26:24;18.37;;;10.93;;
5718;SDS011;2884;47.734;9.244;2022-12-04T17:28:53;16.98;;;10.65;;
5718;SDS011;2884;47.734;9.244;2022-12-04T17:31:22;14.40;;;9.70;;
5718;SDS011;2884;47.734;9.244;2022-12-04T17:33:49;15.70;;;10.52;;
5718;SDS011;2884;47.734;9.244;2022-12-04T17:36:19;14.20;;;9.43;;
5718;SDS011;2884;47.734;9.244;2022-12-04T17:38:46;13.90;;;10.50;;
5718;SDS011;2884;47.734;9.244;2022-12-04T17:41:12;20.33;;;12.60;;